Time;durP1;ratioP1;P1;durP2;ratioP2;P2;SDS_P1;SDS_P2;PMS_P1;PMS_P2;Temp;Humidity;BMP_temperature;BMP_pressure;BME280_temperature;BME280_humidity;BME280_pressure;Samples;Min_cycle;Max_cycle;Signal;HPM_P1;HPM_P2
2022/04/17 00:01:05;;;;;;;32.45;10.82;;;15.00;99.90;;;;;;6225166;22;20011;-83
2022/04/17 00:03:32;;;;;;;27.05;10.13;;;15.00;99.90;;;;;;6250910;22;20070;-83
2022/04/17 00:05:59;;;;;;;21.08;9.98;;;14.90;99.90;;;;;;6225135;22;20012;-83
2022/04/17 00:08:27;;;;;;;25.77;10.82;;;14.90;99.90;;;;;;6250934;22;20004;-83
2022/04/17 00:10:53;;;;;;;22.73;10.23;;;14.90;99.90;;;;;;6250717;22;20007;-83
2022/04/17 00:13:21;;;;;;;20.90;10.35;;;14.90;99.90;;;;;;6225303;22;20075;-83
2022/04/17 00:15:47;;;;;;;23.00;10.50;;;15.00;99.90;;;;;;6276143;22;20004;-84
2022/04/17 00:18:15;;;;;;;27.23;9.70;;;14.90;99.90;;;;;;6250840;22;20015;-83
2022/04/17 00:20:42;;;;;;;21.95;10.93;;;15.00;99.90;;;;;;6276477;22;20000;-83
2022/04/17 00:23:09;;;;;;;23.20;9.68;;;14.90;99.90;;;;;;6225323;22;20018;-82
2022/04/17 00:25:35;;;;;;;22.42;10.52;;;14.90;99.90;;;;;;6250833;22;20004;-83
2022/04/17 00:28:02;;;;;;;26.38;10.85;;;14.90;99.90;;;;;;6225040;22;20497;-83
2022/04/17 00:30:28;;;;;;;23.27;10.45;;;14.90;99.90;;;;;;6225213;22;20018;-83
2022/04/17 00:32:55;;;;;;;22.63;10.35;;;14.80;99.90;;;;;;6225068;22;20090;-83
2022/04/17 00:35:22;;;;;;;24.58;10.95;;;14.80;99.90;;;;;;6244581;23;20039;-83
2022/04/17 00:37:49;;;;;;;22.17;10.32;;;14.80;99.90;;;;;;6194741;23;20047;-83
2022/04/17 00:40:15;;;;;;;23.58;10.43;;;14.80;99.90;;;;;;6219938;23;20083;-83
2022/04/17 00:42:42;;;;;;;26.50;10.88;;;14.70;99.90;;;;;;6195067;23;20015;-84
2022/04/17 00:45:10;;;;;;;24.60;10.55;;;14.80;99.90;;;;;;6220173;23;20075;-83
2022/04/17 00:47:36;;;;;;;26.00;11.88;;;14.70;99.90;;;;;;6219983;23;20000;-83
2022/04/17 00:50:07;;;;;;;18.85;11.00;;;14.70;99.90;;;;;;6194798;23;20008;-83
2022/04/17 00:52:35;;;;;;;25.50;11.13;;;14.70;99.90;;;;;;6219902;23;20012;-83
2022/04/17 00:55:05;;;;;;;23.08;9.75;;;14.70;99.90;;;;;;6220431;23;20010;-83
2022/04/17 00:57:34;;;;;;;21.20;10.23;;;14.70;99.90;;;;;;6219808;23;20008;-83
2022/04/17 01:00:03;;;;;;;17.00;9.52;;;14.70;99.90;;;;;;6194695;23;20429;-83
2022/04/17 01:02:30;;;;;;;22.08;9.88;;;14.70;99.90;;;;;;6220014;23;20315;-83
2022/04/17 01:04:56;;;;;;;23.52;10.10;;;14.80;99.90;;;;;;6194745;23;20015;-83
2022/04/17 01:07:23;;;;;;;18.88;9.07;;;14.80;99.90;;;;;;6194783;23;20062;-83
2022/04/17 01:09:51;;;;;;;17.65;9.75;;;14.80;99.90;;;;;;6194754;23;20015;-83
2022/04/17 01:12:21;;;;;;;18.05;8.88;;;14.80;99.90;;;;;;6219763;23;20008;-83
2022/04/17 01:14:48;;;;;;;19.05;8.95;;;14.80;99.90;;;;;;6194729;23;20055;-83
2022/04/17 01:17:15;;;;;;;20.67;8.30;;;14.80;99.90;;;;;;6194841;23;20011;-83
2022/04/17 01:19:45;;;;;;;22.65;8.38;;;14.80;99.90;;;;;;6196796;23;20031;-83
2022/04/17 01:22:12;;;;;;;22.52;8.27;;;14.80;99.90;;;;;;6196762;23;20008;-83
2022/04/17 01:27:25;;;;;;;27.52;8.57;;;14.80;99.90;;;;;;6221674;23;20012;-83
2022/04/17 01:29:53;;;;;;;21.33;7.70;;;14.80;99.90;;;;;;6196721;23;20009;-83
2022/04/17 01:32:20;;;;;;;23.13;7.97;;;14.80;99.90;;;;;;6196731;23;20011;-83
2022/04/17 01:34:47;;;;;;;22.48;8.32;;;14.80;99.90;;;;;;6221673;23;20012;-83
2022/04/17 01:37:17;;;;;;;17.60;7.35;;;14.80;99.90;;;;;;6249793;22;20038;-82
2022/04/17 01:39:44;;;;;;;24.67;7.55;;;14.80;99.90;;;;;;6252027;22;20011;-83
2022/04/17 01:42:13;;;;;;;21.05;6.97;;;14.80;99.90;;;;;;6252194;22;20008;-83
2022/04/17 01:44:40;;;;;;;24.08;7.45;;;14.80;99.90;;;;;;6252021;22;20032;-83
2022/04/17 01:47:07;;;;;;;26.67;7.45;;;14.80;99.90;;;;;;6251929;22;20397;-83
2022/04/17 01:49:37;;;;;;;17.77;7.15;;;14.80;99.90;;;;;;6277403;22;20353;-83
2022/04/17 01:52:04;;;;;;;20.42;7.05;;;14.80;99.90;;;;;;6278928;22;20003;-82
2022/04/17 01:54:32;;;;;;;21.58;6.90;;;14.80;99.90;;;;;;6279125;22;20004;-82
2022/04/17 01:56:59;;;;;;;28.50;8.32;;;14.80;99.90;;;;;;6277297;22;20016;-83
2022/04/17 01:59:26;;;;;;;24.75;7.20;;;14.80;99.90;;;;;;6279250;22;20012;-83
2022/04/17 02:01:56;;;;;;;20.77;6.75;;;14.80;99.90;;;;;;6277266;22;20000;-82
2022/04/17 02:04:26;;;;;;;24.08;7.05;;;14.80;99.90;;;;;;6303481;22;20004;-82
2022/04/17 02:06:53;;;;;;;22.88;6.93;;;14.80;99.90;;;;;;6303557;22;20325;-82
2022/04/17 02:09:20;;;;;;;22.70;6.22;;;14.90;99.90;;;;;;6303658;22;20000;-82
2022/04/17 02:11:47;;;;;;;21.73;6.60;;;14.90;99.90;;;;;;6251771;22;20447;-82
2022/04/17 02:14:15;;;;;;;22.70;6.95;;;15.00;99.90;;;;;;6251614;22;20007;-82
2022/04/17 02:16:42;;;;;;;25.55;6.32;;;14.90;99.90;;;;;;6251715;22;20018;-83
2022/04/17 02:19:08;;;;;;;23.60;6.22;;;14.90;99.90;;;;;;6277172;22;20026;-83
2022/04/17 02:21:35;;;;;;;17.20;6.38;;;15.00;99.90;;;;;;6277336;22;20004;-82
2022/04/17 02:24:03;;;;;;;20.30;6.20;;;14.90;99.90;;;;;;6251417;22;20015;-82
2022/04/17 02:26:30;;;;;;;21.35;6.95;;;14.90;99.90;;;;;;6251665;22;20004;-82
2022/04/17 02:28:58;;;;;;;19.30;6.50;;;14.90;99.90;;;;;;6276984;22;20008;-82
2022/04/17 02:31:25;;;;;;;20.42;6.57;;;14.90;99.90;;;;;;6251698;22;20015;-82
2022/04/17 02:33:53;;;;;;;21.52;6.78;;;15.00;99.90;;;;;;6251617;22;20008;-82
2022/04/17 02:36:20;;;;;;;27.67;6.85;;;15.00;99.90;;;;;;6232976;23;20087;-83
2022/04/17 02:38:47;;;;;;;17.77;6.22;;;15.00;99.90;;;;;;6246201;23;20026;-82
2022/04/17 02:41:13;;;;;;;24.10;6.70;;;15.00;99.90;;;;;;6221079;23;20027;-83
2022/04/17 02:43:40;;;;;;;18.63;6.55;;;15.00;99.90;;;;;;6246425;23;20004;-82
2022/04/17 02:46:10;;;;;;;18.90;6.18;;;14.90;99.90;;;;;;6246470;23;20005;-82
2022/04/17 02:48:37;;;;;;;16.08;6.05;;;15.00;99.90;;;;;;6248057;23;20008;-82
2022/04/17 02:51:04;;;;;;;15.10;6.07;;;15.00;99.90;;;;;;6220958;23;20000;-82
2022/04/17 02:53:32;;;;;;;16.58;6.40;;;15.00;99.90;;;;;;6220657;23;20016;-82
2022/04/17 02:56:00;;;;;;;19.65;5.80;;;15.00;99.90;;;;;;6220900;23;20008;-82
2022/04/17 02:58:26;;;;;;;19.52;6.30;;;14.90;99.90;;;;;;6220661;23;20044;-82
2022/04/17 03:06:24;;;;;;;20.73;6.95;;;14.90;99.90;;;;;;6246081;23;20058;-82
2022/04/17 03:08:54;;;;;;;26.60;6.50;;;14.90;99.90;;;;;;6220638;23;20083;-82
2022/04/17 03:11:20;;;;;;;20.30;6.10;;;14.90;99.90;;;;;;6246262;23;20001;-82
2022/04/17 03:13:48;;;;;;;18.60;5.97;;;14.90;99.90;;;;;;6247905;23;20011;-82
2022/04/17 03:16:15;;;;;;;22.92;5.75;;;14.90;99.90;;;;;;6220742;23;20027;-83
2022/04/17 03:18:42;;;;;;;19.25;5.95;;;14.90;99.90;;;;;;6247341;22;20111;-82
2022/04/17 03:21:09;;;;;;;15.48;6.50;;;14.90;99.90;;;;;;6220542;23;20011;-83
2022/04/17 03:23:39;;;;;;;18.23;5.88;;;14.90;99.90;;;;;;6245998;23;20088;-83
2022/04/17 03:26:05;;;;;;;17.55;6.07;;;14.90;99.90;;;;;;6220689;23;20015;-82
2022/04/17 03:28:34;;;;;;;19.98;6.55;;;14.80;99.90;;;;;;6220706;22;20063;-83
2022/04/17 03:31:01;;;;;;;21.05;6.28;;;14.90;99.90;;;;;;6247536;23;20415;-82
2022/04/17 03:33:28;;;;;;;26.48;5.72;;;14.90;99.90;;;;;;6220630;23;20012;-82
2022/04/17 03:35:56;;;;;;;22.67;6.10;;;14.90;99.90;;;;;;6240946;22;20012;-82
2022/04/17 03:38:23;;;;;;;25.52;6.43;;;14.90;99.90;;;;;;6276517;22;20047;-82
2022/04/17 03:40:50;;;;;;;21.13;5.72;;;14.90;99.90;;;;;;6250394;22;20452;-82
2022/04/17 03:43:17;;;;;;;22.80;6.13;;;14.80;99.90;;;;;;6276859;22;20313;-82
2022/04/17 03:45:47;;;;;;;20.83;6.50;;;14.80;99.90;;;;;;6277734;22;20433;-83
2022/04/17 03:48:16;;;;;;;20.70;6.15;;;14.90;99.90;;;;;;6276321;22;20328;-82
2022/04/17 03:50:44;;;;;;;26.15;6.40;;;14.90;99.90;;;;;;6250836;22;19999;-82
2022/04/17 03:53:10;;;;;;;19.08;5.90;;;14.90;99.90;;;;;;6278082;22;20011;-82
2022/04/17 03:55:38;;;;;;;15.27;5.80;;;14.90;99.90;;;;;;6276710;22;20000;-83
2022/04/17 03:58:04;;;;;;;19.30;5.38;;;14.90;99.90;;;;;;6276134;22;20008;-83
2022/04/17 04:00:31;;;;;;;21.48;6.18;;;14.90;99.90;;;;;;6276638;22;20004;-83
2022/04/17 04:02:57;;;;;;;16.20;5.55;;;14.90;99.90;;;;;;6276247;22;20042;-82
2022/04/17 04:05:24;;;;;;;16.20;6.22;;;14.90;99.90;;;;;;6278005;22;20011;-83
2022/04/17 04:07:51;;;;;;;15.27;6.57;;;14.80;99.90;;;;;;6275961;22;20008;-82
2022/04/17 04:10:17;;;;;;;21.80;6.43;;;14.80;99.90;;;;;;6302300;22;20050;-82
2022/04/17 04:12:44;;;;;;;19.77;5.55;;;14.80;99.90;;;;;;6275913;22;20008;-83
2022/04/17 04:15:10;;;;;;;18.60;6.65;;;14.70;99.90;;;;;;6276019;22;20004;-82
2022/04/17 04:17:37;;;;;;;17.52;5.88;;;14.80;99.90;;;;;;6250370;22;20341;-82
2022/04/17 04:20:13;;;;;;;17.17;6.25;;;14.80;99.90;;;;;;6250420;22;20065;-82
2022/04/17 04:22:40;;;;;;;21.27;6.30;;;14.70;99.90;;;;;;6276505;22;20034;-82
2022/04/17 04:25:07;;;;;;;20.67;6.65;;;14.80;99.90;;;;;;6276310;22;20321;-81
2022/04/17 04:30:19;;;;;;;22.48;6.40;;;14.80;99.90;;;;;;6277449;22;20031;-82
2022/04/17 04:32:55;;;;;;;20.77;6.40;;;14.80;99.90;;;;;;6277886;22;20054;-82
2022/04/17 04:35:26;;;;;;;19.45;6.65;;;14.80;99.90;;;;;;6275734;22;20008;-82
2022/04/17 04:37:53;;;;;;;17.48;5.95;;;14.80;99.90;;;;;;6250185;22;20065;-82
2022/04/17 04:40:19;;;;;;;19.67;6.00;;;14.90;99.90;;;;;;6275649;22;20353;-82
2022/04/17 04:42:46;;;;;;;23.75;6.72;;;14.80;99.90;;;;;;6250427;22;20023;-83
2022/04/17 04:48:00;;;;;;;15.85;6.45;;;14.90;99.90;;;;;;6277597;22;20008;-83
2022/04/17 04:50:26;;;;;;;16.13;6.13;;;14.90;99.90;;;;;;6275645;22;20004;-83
2022/04/17 04:52:53;;;;;;;25.50;6.82;;;14.90;99.90;;;;;;6276762;22;20034;-82
2022/04/17 04:55:19;;;;;;;16.60;5.90;;;14.90;99.90;;;;;;6275647;22;20030;-82
2022/04/17 04:57:46;;;;;;;22.55;6.15;;;14.90;99.90;;;;;;6277443;22;20012;-82
2022/04/17 05:00:13;;;;;;;23.08;6.82;;;14.90;99.90;;;;;;6275662;22;20445;-82
2022/04/17 05:02:41;;;;;;;19.52;6.00;;;14.90;99.90;;;;;;6250091;22;20003;-82
2022/04/17 05:05:09;;;;;;;18.27;6.20;;;14.80;99.90;;;;;;6250022;22;20008;-82
2022/04/17 05:07:36;;;;;;;22.08;6.00;;;14.80;99.90;;;;;;6250003;22;20035;-82
2022/04/17 05:10:07;;;;;;;24.58;6.40;;;14.90;99.90;;;;;;6250085;22;20007;-82
2022/04/17 05:12:36;;;;;;;15.38;6.88;;;14.80;99.90;;;;;;6250050;22;20008;-82
2022/04/17 05:15:04;;;;;;;21.58;6.00;;;14.90;99.90;;;;;;6276385;22;20007;-82
2022/04/17 05:17:30;;;;;;;24.80;6.57;;;14.90;99.90;;;;;;6249937;22;20007;-83
2022/04/17 05:19:57;;;;;;;26.38;6.32;;;14.90;99.90;;;;;;6301340;22;20126;-82
2022/04/17 05:22:31;;;;;;;20.00;6.25;;;14.90;99.90;;;;;;6275486;22;20008;-82
2022/04/17 05:24:58;;;;;;;;;;;14.90;99.90;;;;;;6277995;22;20007;-82
2022/04/17 05:27:24;;;;;;;20.15;6.03;;;14.90;99.90;;;;;;6275602;22;19903;-82
2022/04/17 05:29:51;;;;;;;15.43;5.78;;;14.90;99.90;;;;;;6277390;22;20077;-82
2022/04/17 05:32:17;;;;;;;11.40;5.53;;;14.90;99.90;;;;;;6275417;22;20475;-81
2022/04/17 05:34:44;;;;;;;14.77;5.05;;;14.90;99.90;;;;;;6275984;22;20031;-82
2022/04/17 05:37:10;;;;;;;17.65;5.55;;;15.00;99.90;;;;;;6275008;22;20019;-83
2022/04/17 05:39:40;;;;;;;14.55;5.28;;;14.90;99.90;;;;;;6275617;22;20027;-84
2022/04/17 05:42:06;;;;;;;18.60;5.97;;;14.90;99.90;;;;;;6275719;22;20008;-83
2022/04/17 05:44:35;;;;;;;21.25;5.50;;;14.90;99.90;;;;;;6250315;22;20057;-84
2022/04/17 05:47:03;;;;;;;15.50;5.22;;;14.90;99.90;;;;;;6249986;22;20011;-83
2022/04/17 05:49:29;;;;;;;27.48;5.07;;;14.90;99.90;;;;;;6249975;22;20090;-83
2022/04/17 05:51:57;;;;;;;12.30;4.38;;;14.90;99.90;;;;;;6250048;22;20004;-83
2022/04/17 05:54:25;;;;;;;16.48;5.53;;;14.90;99.90;;;;;;6250048;22;20012;-81
2022/04/17 05:56:52;;;;;;;16.75;4.75;;;15.00;99.90;;;;;;6275976;22;20071;-84
2022/04/17 05:59:18;;;;;;;13.82;4.80;;;15.00;99.90;;;;;;6250429;22;20023;-86
2022/04/17 06:01:46;;;;;;;12.63;4.70;;;15.00;99.90;;;;;;6250194;22;20003;-82
2022/04/17 06:04:13;;;;;;;18.95;5.53;;;15.10;99.90;;;;;;6250717;22;20007;-84
2022/04/17 06:06:42;;;;;;;16.23;5.28;;;15.10;99.90;;;;;;6251932;22;20079;-81
2022/04/17 06:09:12;;;;;;;19.95;4.93;;;15.20;99.90;;;;;;6277289;22;20064;-82
2022/04/17 06:11:39;;;;;;;12.10;4.35;;;15.20;99.90;;;;;;6251889;22;20314;-85
2022/04/17 06:14:05;;;;;;;20.42;4.65;;;15.10;99.90;;;;;;6252625;22;20011;-84
2022/04/17 06:16:32;;;;;;;16.73;4.22;;;15.20;99.90;;;;;;6251974;22;20375;-82
2022/04/17 06:18:58;;;;;;;18.25;4.25;;;15.20;99.90;;;;;;6251735;22;20024;-83
2022/04/17 06:21:25;;;;;;;19.75;4.55;;;15.20;99.90;;;;;;6252055;22;20008;-83
2022/04/17 06:23:52;;;;;;;18.52;4.78;;;15.30;99.90;;;;;;6251839;22;20030;-83
2022/04/17 06:26:18;;;;;;;14.65;4.32;;;15.50;99.90;;;;;;6250256;22;20008;-83
2022/04/17 06:28:45;;;;;;;14.63;4.53;;;15.50;99.90;;;;;;6250402;22;20057;-84
2022/04/17 06:31:11;;;;;;;20.23;4.30;;;15.60;99.90;;;;;;6250327;22;20004;-82
2022/04/17 06:33:38;;;;;;;13.18;3.50;;;15.60;99.90;;;;;;6249961;22;20011;-85
2022/04/17 06:36:05;;;;;;;18.33;4.45;;;15.50;99.90;;;;;;6250994;22;20016;-86
2022/04/17 06:38:32;;;;;;;17.98;3.97;;;15.60;99.90;;;;;;6253335;22;20011;-83
2022/04/17 06:40:59;;;;;;;19.55;4.85;;;15.80;99.90;;;;;;6250125;22;20345;-84
2022/04/17 06:43:25;;;;;;;12.15;3.75;;;16.10;99.90;;;;;;6250236;22;20038;-83
2022/04/17 06:45:51;;;;;;;17.42;3.80;;;16.10;99.90;;;;;;6276733;22;20083;-83
2022/04/17 06:48:22;;;;;;;17.30;3.03;;;16.10;99.90;;;;;;6278281;22;20000;-83
2022/04/17 06:50:52;;;;;;;15.30;3.13;;;16.20;99.90;;;;;;6275513;22;20370;-84
2022/04/17 06:53:20;;;;;;;7.60;3.08;;;16.30;99.90;;;;;;6250170;22;20011;-84
2022/04/17 06:55:48;;;;;;;15.35;4.18;;;16.60;99.90;;;;;;6250333;22;20007;-83
2022/04/17 06:58:17;;;;;;;15.10;3.38;;;16.70;99.90;;;;;;6249832;22;20095;-83
2022/04/17 07:00:45;;;;;;;14.60;3.25;;;16.80;99.90;;;;;;6250303;22;20012;-84
2022/04/17 07:03:14;;;;;;;15.85;3.53;;;16.60;99.90;;;;;;6274574;22;20425;-84
2022/04/17 07:05:41;;;;;;;17.30;2.75;;;16.40;99.90;;;;;;6249442;22;20038;-86
2022/04/17 07:08:08;;;;;;;13.88;3.17;;;16.30;99.90;;;;;;6250142;22;20007;-84
2022/04/17 07:10:39;;;;;;;18.67;3.38;;;16.40;99.90;;;;;;6250105;22;20341;-84
2022/04/17 07:13:08;;;;;;;11.95;2.67;;;16.60;99.90;;;;;;6250208;22;20018;-82
2022/04/17 07:15:34;;;;;;;15.85;3.28;;;16.50;99.90;;;;;;6249321;22;20043;-82
2022/04/17 07:18:01;;;;;;;12.57;2.78;;;16.70;99.90;;;;;;6274630;22;20082;-83
2022/04/17 07:20:29;;;;;;;14.70;3.05;;;17.10;99.90;;;;;;6274396;22;20020;-82
2022/04/17 07:23:02;;;;;;;11.13;3.80;;;17.20;99.90;;;;;;6274969;22;20419;-83
2022/04/17 07:25:33;;;;;;;21.35;3.17;;;17.20;99.90;;;;;;6249494;22;20141;-83
2022/04/17 07:27:59;;;;;;;19.08;3.00;;;17.00;99.90;;;;;;6249298;22;20069;-82
2022/04/17 07:30:28;;;;;;;9.52;2.72;;;16.80;99.90;;;;;;6249677;22;20003;-84
2022/04/17 07:33:00;;;;;;;16.35;3.13;;;16.60;99.90;;;;;;6250156;22;20007;-84
2022/04/17 07:35:28;;;;;;;18.27;3.00;;;16.60;99.90;;;;;;6242928;23;20016;-83
2022/04/17 07:38:00;;;;;;;16.58;3.08;;;16.70;99.90;;;;;;6219347;23;20019;-84
2022/04/17 07:40:29;;;;;;;12.20;2.80;;;16.60;99.90;;;;;;6219102;23;20472;-84
2022/04/17 07:43:00;;;;;;;18.83;3.28;;;16.80;99.90;;;;;;6219097;23;20008;-83
2022/04/17 07:45:28;;;;;;;10.93;2.17;;;16.90;99.90;;;;;;6218764;23;20011;-82
2022/04/17 07:47:55;;;;;;;14.75;2.63;;;17.30;99.90;;;;;;6218681;23;20019;-82
2022/04/17 07:50:24;;;;;;;15.52;2.70;;;17.70;99.90;;;;;;6218940;23;20049;-82
2022/04/17 07:52:53;;;;;;;14.25;2.70;;;18.20;99.90;;;;;;6245200;23;20556;-83
2022/04/17 07:55:20;;;;;;;12.48;2.38;;;18.70;99.90;;;;;;6245386;23;20010;-84
2022/04/17 08:00:59;;;;;;;18.95;3.30;;;18.50;99.90;;;;;;6219025;23;20323;-83
2022/04/17 08:03:46;;;;;;;13.90;3.35;;;18.10;99.90;;;;;;6219509;23;20012;-84
2022/04/17 08:06:16;;;;;;;11.52;2.15;;;17.90;99.90;;;;;;6219961;23;20008;-84
2022/04/17 08:08:44;;;;;;;12.45;3.25;;;17.60;99.90;;;;;;6194263;23;20008;-84
2022/04/17 08:11:11;;;;;;;11.23;2.65;;;17.60;99.90;;;;;;6194175;23;20392;-83
2022/04/17 08:13:42;;;;;;;14.18;3.03;;;17.70;99.90;;;;;;6194372;23;20086;-85
2022/04/17 08:16:09;;;;;;;11.68;3.47;;;17.60;99.90;;;;;;6194210;23;20019;-82
2022/04/17 08:18:38;;;;;;;14.90;2.75;;;17.40;99.90;;;;;;6194183;22;20095;-85
2022/04/17 08:21:05;;;;;;;8.80;3.08;;;17.40;99.90;;;;;;6194504;22;20314;-84
2022/04/17 08:23:32;;;;;;;12.23;2.33;;;17.20;99.90;;;;;;6194606;23;20042;-84
2022/04/17 08:26:01;;;;;;;10.63;2.47;;;17.30;99.90;;;;;;6194875;23;20051;-84
2022/04/17 08:28:27;;;;;;;15.68;2.90;;;17.20;99.90;;;;;;6219614;23;20059;-84
2022/04/17 08:30:55;;;;;;;12.52;2.80;;;17.30;99.90;;;;;;6194577;23;20504;-83
2022/04/17 08:33:21;;;;;;;10.55;2.33;;;17.30;99.90;;;;;;6219986;23;20000;-83
2022/04/17 08:35:51;;;;;;;22.48;2.75;;;17.40;99.90;;;;;;6236592;22;20392;-83
2022/04/17 08:38:19;;;;;;;16.30;2.55;;;17.30;99.90;;;;;;6276210;22;20022;-85
2022/04/17 08:40:46;;;;;;;9.55;2.20;;;17.50;99.90;;;;;;6250660;22;20329;-85
2022/04/17 08:43:13;;;;;;;14.90;2.67;;;17.60;99.90;;;;;;6250263;22;20016;-83
2022/04/17 08:45:40;;;;;;;16.08;3.25;;;17.80;99.90;;;;;;6250320;22;20082;-84
2022/04/17 08:48:08;;;;;;;13.70;2.80;;;17.70;99.90;;;;;;6250143;22;20014;-83
2022/04/17 08:50:37;;;;;;;10.85;2.55;;;17.90;99.90;;;;;;6250234;22;20008;-85
2022/04/17 08:53:06;;;;;;;14.63;2.80;;;18.00;99.90;;;;;;6250318;22;20008;-83
2022/04/17 08:55:33;;;;;;;9.88;2.25;;;18.20;99.90;;;;;;6250184;22;20012;-83
2022/04/17 08:57:59;;;;;;;11.32;2.85;;;18.40;99.90;;;;;;6275601;22;20329;-82
2022/04/17 09:00:29;;;;;;;11.27;2.40;;;18.40;99.90;;;;;;6276142;22;20007;-83
2022/04/17 09:03:02;;;;;;;13.70;2.80;;;18.20;99.90;;;;;;6250211;22;20007;-83
2022/04/17 09:05:33;;;;;;;16.23;2.75;;;18.00;99.90;;;;;;6250325;22;20020;-85
2022/04/17 09:08:13;;;;;;;18.17;2.45;;;17.90;99.90;;;;;;6250530;22;20008;-84
2022/04/17 09:10:40;;;;;;;15.05;2.47;;;17.80;99.90;;;;;;6250368;22;20011;-84
2022/04/17 09:13:07;;;;;;;19.77;3.17;;;17.60;99.90;;;;;;6250451;22;20003;-84
2022/04/17 09:15:35;;;;;;;12.80;2.53;;;17.40;99.90;;;;;;6250417;22;20004;-84
2022/04/17 09:18:08;;;;;;;11.85;2.33;;;17.50;99.90;;;;;;6251173;22;20069;-83
2022/04/17 09:20:35;;;;;;;9.77;1.98;;;17.60;99.90;;;;;;6278101;22;20425;-85
2022/04/17 09:23:01;;;;;;;15.90;2.88;;;17.70;99.90;;;;;;6250799;22;20093;-85
2022/04/17 09:25:29;;;;;;;16.40;2.35;;;17.50;99.90;;;;;;6250536;22;20014;-84
2022/04/17 09:27:58;;;;;;;10.15;2.20;;;17.40;99.90;;;;;;6276283;22;20003;-86
2022/04/17 09:30:29;;;;;;;8.10;2.85;;;17.50;99.90;;;;;;6250515;22;20065;-88
2022/04/17 09:32:56;;;;;;;7.07;2.05;;;17.50;99.90;;;;;;6250549;22;20007;-84
2022/04/17 09:35:26;;;;;;;7.50;1.80;;;17.60;99.90;;;;;;6250442;22;20012;-85
2022/04/17 09:38:03;;;;;;;13.15;2.83;;;17.70;99.90;;;;;;6250237;22;20016;-85
2022/04/17 09:40:31;;;;;;;11.68;2.35;;;17.60;99.90;;;;;;6252588;22;20007;-85
2022/04/17 09:43:15;;;;;;;18.45;2.45;;;17.60;99.90;;;;;;6252775;22;20031;-85
2022/04/17 09:46:19;;;;;;;12.98;2.30;;;17.70;99.90;;;;;;6252617;22;20033;-85
2022/04/17 09:48:46;;;;;;;13.90;2.90;;;17.70;99.90;;;;;;6131726;23;20009;-87
2022/04/17 09:51:24;;;;;;;10.05;3.08;;;17.70;99.90;;;;;;6131988;23;20077;-87
2022/04/17 09:54:04;;;;;;;9.15;2.33;;;17.90;99.90;;;;;;6131851;23;20431;-86
2022/04/17 09:56:37;;;;;;;6.93;1.98;;;18.00;99.90;;;;;;6131609;23;20013;-84
2022/04/17 09:59:16;;;;;;;14.48;2.25;;;17.80;99.90;;;;;;6131258;23;20060;-85
2022/04/17 10:01:47;;;;;;;19.05;2.80;;;17.70;99.90;;;;;;6131380;23;20359;-85
2022/04/17 10:04:16;;;;;;;14.23;2.30;;;17.80;99.90;;;;;;6131844;23;20096;-84
2022/04/17 10:06:44;;;;;;;17.20;2.17;;;18.00;99.90;;;;;;6130944;23;20454;-85
2022/04/17 10:09:11;;;;;;;12.63;2.72;;;18.00;99.90;;;;;;6129778;23;20350;-86
2022/04/17 10:11:39;;;;;;;11.45;2.22;;;17.90;99.90;;;;;;6130359;23;20120;-87
2022/04/17 10:14:06;;;;;;;8.23;1.83;;;17.90;99.90;;;;;;6130385;23;20005;-86
2022/04/17 10:16:41;;;;;;;18.95;6.03;;;18.00;99.90;;;;;;6129998;23;20014;-89
2022/04/17 10:19:13;;;;;;;13.90;3.38;;;17.90;99.90;;;;;;6130203;23;20384;-89
2022/04/17 10:21:40;;;;;;;12.20;3.53;;;17.90;99.90;;;;;;6141513;22;20006;-85
2022/04/17 10:24:11;;;;;;;12.60;3.92;;;18.00;99.90;;;;;;6250877;22;20012;-85
2022/04/17 10:26:47;;;;;;;15.50;2.80;;;17.90;99.90;;;;;;6250292;22;20003;-85
2022/04/17 10:29:43;;;;;;;5.65;2.00;;;17.80;99.90;;;;;;6252433;22;20012;-86
2022/04/17 10:32:39;;;;;;;12.38;2.08;;;17.70;99.90;;;;;;6252143;22;20433;-84
2022/04/17 10:35:26;;;;;;;12.50;2.00;;;17.70;99.90;;;;;;6251937;22;20018;-85
2022/04/17 10:38:22;;;;;;;12.38;1.85;;;17.50;99.90;;;;;;6226953;22;20015;-86
2022/04/17 10:41:04;;;;;;;9.65;2.28;;;17.50;99.90;;;;;;6226717;22;20019;-86
